createdAt,value
2019-01-15T00:03:02.322Z,9.32
2019-01-15T00:08:11.246Z,11.02
2019-01-15T00:13:20.198Z,9.50
2019-01-15T00:18:29.130Z,8.22
2019-01-15T00:23:38.122Z,10.01
2019-01-15T00:28:47.057Z,10.29
2019-01-15T00:33:56.051Z,7.97
2019-01-15T00:39:05.007Z,8.02
2019-01-15T00:44:14.003Z,11.14
2019-01-15T00:49:22.930Z,8.47
2019-01-15T00:54:31.962Z,8.81
2019-01-15T00:59:40.937Z,10.84
2019-01-15T01:04:49.910Z,8.69
2019-01-15T01:09:57.370Z,8.32
2019-01-15T01:15:06.354Z,7.87
2019-01-15T01:20:15.327Z,7.84
2019-01-15T01:25:24.298Z,8.51
2019-01-15T01:30:33.234Z,8.28
2019-01-15T01:35:42.226Z,8.83
2019-01-15T01:40:51.157Z,6.79
2019-01-15T01:46:00.178Z,8.12
2019-01-15T01:51:09.131Z,7.80
2019-01-15T01:56:18.079Z,8.52
2019-01-15T02:01:27.018Z,9.73
2019-01-15T02:06:35.997Z,10.77
2019-01-15T02:11:43.474Z,12.05
2019-01-15T02:16:52.454Z,16.90
2019-01-15T02:22:01.393Z,23.29
2019-01-15T02:27:10.398Z,20.88
2019-01-15T02:32:19.314Z,23.06
2019-01-15T02:37:28.307Z,24.76
2019-01-15T02:42:46.123Z,27.69
2019-01-15T02:47:45.774Z,33.62
2019-01-15T02:52:54.674Z,37.19
2019-01-15T02:58:03.662Z,41.32
2019-01-15T03:03:12.578Z,45.27
2019-01-15T03:08:21.523Z,51.13
2019-01-15T03:13:30.466Z,48.20
2019-01-15T03:18:39.421Z,46.92
2019-01-15T03:23:48.338Z,50.45
2019-01-15T03:28:57.286Z,51.91
2019-01-15T03:34:06.231Z,51.59
2019-01-15T03:39:15.243Z,52.09
2019-01-15T03:44:24.191Z,49.81
2019-01-15T03:49:33.175Z,51.26
2019-01-15T03:54:42.122Z,49.08
2019-01-15T03:59:51.074Z,45.28
2019-01-15T04:05:00.015Z,46.56
2019-01-15T04:10:08.996Z,49.85
2019-01-15T04:15:18.047Z,54.19
2019-01-15T04:20:27.030Z,49.20
2019-01-15T04:25:37.265Z,48.34
2019-01-15T04:30:44.502Z,46.69
2019-01-15T04:35:53.438Z,42.54
2019-01-15T04:41:02.431Z,42.35
2019-01-15T04:46:11.373Z,40.85
2019-01-15T04:51:20.403Z,43.74
2019-01-15T04:56:29.357Z,35.50
2019-01-15T05:01:38.360Z,39.23
2019-01-15T05:06:47.282Z,38.67
2019-01-15T05:11:56.231Z,38.35
2019-01-15T05:17:05.183Z,41.02
2019-01-15T05:22:14.154Z,42.59
2019-01-15T05:27:23.083Z,40.96
2019-01-15T05:32:32.079Z,47.17
2019-01-15T05:37:41.008Z,43.27
2019-01-15T05:42:49.951Z,47.17
2019-01-15T05:47:58.897Z,43.00
2019-01-15T05:53:07.838Z,45.91
2019-01-15T05:58:16.818Z,46.78
2019-01-15T06:03:25.774Z,45.23
2019-01-15T06:08:34.708Z,42.19
2019-01-15T06:13:43.658Z,49.75
2019-01-15T06:18:52.564Z,47.27
2019-01-15T06:24:01.525Z,48.57
2019-01-15T06:29:10.452Z,53.34
2019-01-15T06:34:19.482Z,50.52
2019-01-15T06:39:28.412Z,46.98
2019-01-15T06:44:37.361Z,49.49
2019-01-15T06:49:46.296Z,48.59
2019-01-15T06:54:55.226Z,49.37
2019-01-15T07:00:04.163Z,48.66
2019-01-15T07:05:14.205Z,50.15
2019-01-15T07:10:21.614Z,43.86
2019-01-15T07:15:30.538Z,47.89
2019-01-15T07:20:37.230Z,45.27
2019-01-15T07:25:46.174Z,51.60
2019-01-15T07:30:55.187Z,50.76
2019-01-15T07:36:04.134Z,46.45
2019-01-15T07:41:13.091Z,51.35
2019-01-15T07:46:22.021Z,51.26
2019-01-15T07:51:30.986Z,48.85
2019-01-15T07:56:39.903Z,50.03
2019-01-15T08:01:48.858Z,45.67
2019-01-15T08:06:57.813Z,46.23
2019-01-15T08:12:06.758Z,44.18
2019-01-15T08:17:15.725Z,44.83
2019-01-15T08:22:24.694Z,44.33
2019-01-15T08:27:33.643Z,40.97
2019-01-15T08:32:42.675Z,44.33
2019-01-15T08:37:51.612Z,42.53
2019-01-15T08:43:00.861Z,40.62
2019-01-15T08:48:09.803Z,40.54
2019-01-15T08:53:18.746Z,37.78
2019-01-15T08:58:27.670Z,38.44
2019-01-15T09:03:36.690Z,37.88
2019-01-15T09:08:45.607Z,39.79
2019-01-15T09:13:54.666Z,38.14
2019-01-15T09:19:03.613Z,35.65
2019-01-15T09:24:12.630Z,37.13
2019-01-15T09:29:21.550Z,36.91
2019-01-15T09:34:30.554Z,31.59
2019-01-15T09:39:39.490Z,29.27
2019-01-15T09:44:48.514Z,31.03
2019-01-15T09:49:57.450Z,30.59
2019-01-15T09:55:06.498Z,29.31
2019-01-15T10:00:15.448Z,29.09
2019-01-15T10:05:24.502Z,24.55
2019-01-15T10:10:33.471Z,25.19
2019-01-15T10:15:42.462Z,22.63
2019-01-15T10:20:51.430Z,20.65
2019-01-15T10:26:00.499Z,22.25
2019-01-15T10:31:09.458Z,18.38
2019-01-15T10:36:18.423Z,18.12
2019-01-15T10:41:27.386Z,20.80
2019-01-15T10:46:36.399Z,16.69
2019-01-15T10:51:45.349Z,16.08
2019-01-15T10:56:54.302Z,17.53
2019-01-15T11:02:03.266Z,16.55
2019-01-15T11:07:12.215Z,13.40
2019-01-15T11:12:21.186Z,16.57
2019-01-15T11:17:30.123Z,14.89
2019-01-15T11:22:39.228Z,12.22
2019-01-15T11:27:48.173Z,10.70
2019-01-15T11:32:57.191Z,9.79
2019-01-15T11:38:06.145Z,10.12
2019-01-15T11:43:15.130Z,11.75
2019-01-15T11:48:24.066Z,8.91
2019-01-15T11:53:33.070Z,10.45
2019-01-15T11:58:42.022Z,7.44
2019-01-15T12:03:51.022Z,12.92
2019-01-15T12:08:59.954Z,12.52
2019-01-15T12:14:08.922Z,11.99
2019-01-15T12:19:17.905Z,10.59
2019-01-15T12:24:26.830Z,11.51
2019-01-15T12:29:35.818Z,14.26
2019-01-15T12:34:44.760Z,11.36
2019-01-15T12:39:53.747Z,9.63
2019-01-15T12:45:02.706Z,10.77
2019-01-15T12:50:11.715Z,10.62
2019-01-15T12:55:20.670Z,12.74
2019-01-15T13:00:29.638Z,11.14
2019-01-15T13:05:38.596Z,10.42
2019-01-15T13:10:47.638Z,13.03
2019-01-15T13:15:56.599Z,9.50
2019-01-15T13:21:05.691Z,10.91
2019-01-15T13:26:14.675Z,11.15
2019-01-15T13:31:24.710Z,13.22
2019-01-15T13:36:23.706Z,8.37
2019-01-15T13:41:32.703Z,8.83
2019-01-15T13:46:41.662Z,9.34
2019-01-15T13:51:50.659Z,9.11
2019-01-15T13:56:59.902Z,10.36
2019-01-15T14:02:08.895Z,10.07
2019-01-15T14:07:17.854Z,11.35
2019-01-15T14:12:26.800Z,8.66
2019-01-15T14:17:35.769Z,8.26
2019-01-15T14:22:44.734Z,8.56
2019-01-15T14:27:53.785Z,8.09
2019-01-15T14:33:02.739Z,9.88
2019-01-15T14:38:11.699Z,6.45
2019-01-15T14:43:20.662Z,8.21
2019-01-15T14:48:29.614Z,5.11
2019-01-15T14:53:38.582Z,7.68
2019-01-15T14:58:47.578Z,9.09
2019-01-15T15:03:56.518Z,8.44
2019-01-15T15:09:05.482Z,7.40
2019-01-15T15:14:14.442Z,8.36
2019-01-15T15:19:23.519Z,7.03
2019-01-15T15:24:32.468Z,7.13
2019-01-15T15:29:41.555Z,7.40
2019-01-15T15:34:50.470Z,7.02
2019-01-15T15:39:59.478Z,8.01
2019-01-15T15:45:08.418Z,9.02
2019-01-15T15:50:17.388Z,9.91
2019-01-15T15:55:26.451Z,9.45
2019-01-15T16:00:35.380Z,6.89
2019-01-15T16:05:44.408Z,11.39
2019-01-15T16:10:53.334Z,9.96
2019-01-15T16:16:02.419Z,10.86
2019-01-15T16:21:11.331Z,9.56
2019-01-15T16:26:20.371Z,9.41
2019-01-15T16:31:29.307Z,10.81
2019-01-15T16:36:38.335Z,11.28
2019-01-15T16:41:47.295Z,12.80
2019-01-15T16:46:56.262Z,12.64
2019-01-15T16:52:05.202Z,10.49
2019-01-15T16:57:14.326Z,13.38
2019-01-15T17:02:23.222Z,11.14
2019-01-15T17:07:32.191Z,13.82
2019-01-15T17:12:41.152Z,12.44
2019-01-15T17:17:50.110Z,13.58
2019-01-15T17:22:59.047Z,11.10
2019-01-15T17:28:07.987Z,13.59
2019-01-15T17:33:16.932Z,12.33
2019-01-15T17:38:25.867Z,13.01
2019-01-15T17:43:34.911Z,11.22
2019-01-15T17:48:43.858Z,11.88
2019-01-15T17:53:52.895Z,13.40
2019-01-15T17:59:01.830Z,11.93
2019-01-15T18:04:10.874Z,9.94
2019-01-15T18:09:19.816Z,11.64
2019-01-15T18:14:28.754Z,10.70
2019-01-15T18:19:37.721Z,12.94
2019-01-15T18:24:46.660Z,11.53
2019-01-15T18:29:55.674Z,12.92
2019-01-15T18:35:04.609Z,12.30
2019-01-15T18:40:13.651Z,13.48
2019-01-15T18:45:22.617Z,13.14
2019-01-15T18:50:31.662Z,12.88
2019-01-15T18:55:40.617Z,14.33
2019-01-15T19:00:48.110Z,15.99
2019-01-15T19:05:55.570Z,13.45
2019-01-15T19:11:04.542Z,12.64
2019-01-15T19:16:13.519Z,14.33
2019-01-15T19:21:22.562Z,13.74
2019-01-15T19:26:31.493Z,14.07
2019-01-15T19:31:40.454Z,12.91
2019-01-15T19:36:49.395Z,14.22
2019-01-15T19:41:58.482Z,13.50
2019-01-15T19:47:10.782Z,13.13
2019-01-15T19:52:15.914Z,13.52
2019-01-15T19:57:24.879Z,13.25
2019-01-15T20:02:33.866Z,12.72
2019-01-15T20:07:42.798Z,11.67
2019-01-15T20:12:51.874Z,12.18
2019-01-15T20:18:00.827Z,11.46
2019-01-15T20:23:09.886Z,10.78
2019-01-15T20:28:18.830Z,10.94
2019-01-15T20:33:27.850Z,8.92
2019-01-15T20:38:36.779Z,11.04
2019-01-15T20:43:45.791Z,10.76
2019-01-15T20:48:54.743Z,9.85
2019-01-15T20:54:03.762Z,10.09
2019-01-15T20:59:12.763Z,10.01
2019-01-15T21:04:21.751Z,9.06
2019-01-15T21:09:30.715Z,8.77
2019-01-15T21:14:39.671Z,9.95
2019-01-15T21:19:48.633Z,9.00
2019-01-15T21:24:57.702Z,9.73
2019-01-15T21:30:06.646Z,10.22
2019-01-15T21:35:15.749Z,11.99
2019-01-15T21:40:24.700Z,9.31
2019-01-15T21:45:33.690Z,9.84
2019-01-15T21:50:42.629Z,12.67
2019-01-15T21:55:51.606Z,12.16
2019-01-15T22:01:00.570Z,13.66
2019-01-15T22:06:09.558Z,13.79
2019-01-15T22:11:18.499Z,12.22
2019-01-15T22:16:27.459Z,12.99
2019-01-15T22:21:36.420Z,12.26
2019-01-15T22:26:45.402Z,13.41
2019-01-15T22:31:54.358Z,13.38
2019-01-15T22:37:03.354Z,14.91
2019-01-15T22:42:12.291Z,15.55
2019-01-15T22:47:21.279Z,15.62
2019-01-15T22:52:30.243Z,15.42
2019-01-15T22:57:39.163Z,15.49
2019-01-15T23:02:48.094Z,17.06
2019-01-15T23:07:57.038Z,15.92
2019-01-15T23:13:05.996Z,15.85
2019-01-15T23:18:14.960Z,15.86
2019-01-15T23:23:23.886Z,18.39
2019-01-15T23:28:32.851Z,17.74
2019-01-15T23:33:41.783Z,21.41
2019-01-15T23:38:50.722Z,22.34
2019-01-15T23:43:59.675Z,20.08
2019-01-15T23:49:08.643Z,22.16
2019-01-15T23:54:17.606Z,21.81
2019-01-15T23:59:26.562Z,23.57
